sensor_id;sensor_type;location;lat;lon;timestamp;P1;durP1;ratioP1;P2;durP2;ratioP2
55815;SDS011;41744;52.404;16.942;2023-05-07T00:01:18;10.93;;;4.10;;
55815;SDS011;41744;52.404;16.942;2023-05-07T00:03:44;7.87;;;3.90;;
55815;SDS011;41744;52.404;16.942;2023-05-07T00:06:10;7.63;;;4.10;;
55815;SDS011;41744;52.404;16.942;2023-05-07T00:08:37;8.83;;;4.60;;
55815;SDS011;41744;52.404;16.942;2023-05-07T00:11:03;12.43;;;4.13;;
55815;SDS011;41744;52.404;16.942;2023-05-07T00:13:35;8.93;;;3.90;;
55815;SDS011;41744;52.404;16.942;2023-05-07T00:16:02;8.70;;;3.50;;
55815;SDS011;41744;52.404;16.942;2023-05-07T00:18:28;10.77;;;4.20;;
55815;SDS011;41744;52.404;16.942;2023-05-07T00:20:54;9.27;;;4.33;;
55815;SDS011;41744;52.404;16.942;2023-05-07T00:23:21;8.63;;;3.77;;
55815;SDS011;41744;52.404;16.942;2023-05-07T00:25:47;11.33;;;3.70;;
55815;SDS011;41744;52.404;16.942;2023-05-07T00:28:13;6.67;;;3.73;;
55815;SDS011;41744;52.404;16.942;2023-05-07T00:30:39;8.57;;;3.60;;
55815;SDS011;41744;52.404;16.942;2023-05-07T00:33:05;7.47;;;3.57;;
55815;SDS011;41744;52.404;16.942;2023-05-07T00:35:31;7.63;;;3.70;;
55815;SDS011;41744;52.404;16.942;2023-05-07T00:37:57;11.60;;;3.87;;
55815;SDS011;41744;52.404;16.942;2023-05-07T00:40:23;8.47;;;4.00;;
55815;SDS011;41744;52.404;16.942;2023-05-07T00:42:49;12.27;;;4.77;;
55815;SDS011;41744;52.404;16.942;2023-05-07T00:45:16;10.67;;;3.97;;
55815;SDS011;41744;52.404;16.942;2023-05-07T00:47:42;9.43;;;4.50;;
55815;SDS011;41744;52.404;16.942;2023-05-07T00:50:09;11.30;;;4.70;;
55815;SDS011;41744;52.404;16.942;2023-05-07T00:52:35;9.37;;;4.70;;
55815;SDS011;41744;52.404;16.942;2023-05-07T00:55:04;13.83;;;5.17;;
55815;SDS011;41744;52.404;16.942;2023-05-07T00:57:32;9.47;;;4.70;;
55815;SDS011;41744;52.404;16.942;2023-05-07T00:59:59;8.57;;;4.80;;
55815;SDS011;41744;52.404;16.942;2023-05-07T01:02:25;9.13;;;5.17;;
55815;SDS011;41744;52.404;16.942;2023-05-07T01:04:51;10.37;;;5.10;;
55815;SDS011;41744;52.404;16.942;2023-05-07T01:07:17;9.77;;;4.97;;
55815;SDS011;41744;52.404;16.942;2023-05-07T01:09:43;10.00;;;5.30;;
55815;SDS011;41744;52.404;16.942;2023-05-07T01:12:09;8.97;;;4.63;;
55815;SDS011;41744;52.404;16.942;2023-05-07T01:14:36;12.33;;;5.00;;
55815;SDS011;41744;52.404;16.942;2023-05-07T01:17:02;12.70;;;5.10;;
55815;SDS011;41744;52.404;16.942;2023-05-07T01:19:28;14.07;;;5.60;;
55815;SDS011;41744;52.404;16.942;2023-05-07T01:21:55;16.20;;;5.27;;
55815;SDS011;41744;52.404;16.942;2023-05-07T01:24:27;12.13;;;5.60;;
55815;SDS011;41744;52.404;16.942;2023-05-07T01:26:53;14.37;;;6.00;;
55815;SDS011;41744;52.404;16.942;2023-05-07T01:29:19;10.30;;;5.30;;
55815;SDS011;41744;52.404;16.942;2023-05-07T01:31:45;11.50;;;5.57;;
55815;SDS011;41744;52.404;16.942;2023-05-07T01:34:12;10.33;;;5.77;;
55815;SDS011;41744;52.404;16.942;2023-05-07T01:36:38;10.73;;;5.90;;
55815;SDS011;41744;52.404;16.942;2023-05-07T01:39:05;11.97;;;5.70;;
55815;SDS011;41744;52.404;16.942;2023-05-07T01:41:31;11.80;;;5.87;;
55815;SDS011;41744;52.404;16.942;2023-05-07T01:43:57;14.93;;;5.83;;
55815;SDS011;41744;52.404;16.942;2023-05-07T01:46:23;12.73;;;5.80;;
55815;SDS011;41744;52.404;16.942;2023-05-07T01:48:50;10.77;;;5.80;;
55815;SDS011;41744;52.404;16.942;2023-05-07T01:51:16;9.97;;;5.53;;
55815;SDS011;41744;52.404;16.942;2023-05-07T01:54:03;12.53;;;5.73;;
55815;SDS011;41744;52.404;16.942;2023-05-07T01:56:29;11.37;;;5.70;;
55815;SDS011;41744;52.404;16.942;2023-05-07T01:58:55;12.57;;;5.97;;
55815;SDS011;41744;52.404;16.942;2023-05-07T02:01:21;13.67;;;5.60;;
55815;SDS011;41744;52.404;16.942;2023-05-07T02:03:47;11.77;;;5.53;;
55815;SDS011;41744;52.404;16.942;2023-05-07T02:06:13;12.67;;;5.83;;
55815;SDS011;41744;52.404;16.942;2023-05-07T02:08:39;12.87;;;5.70;;
55815;SDS011;41744;52.404;16.942;2023-05-07T02:11:05;16.10;;;6.60;;
55815;SDS011;41744;52.404;16.942;2023-05-07T02:13:32;11.40;;;5.83;;
55815;SDS011;41744;52.404;16.942;2023-05-07T02:15:58;11.37;;;5.53;;
55815;SDS011;41744;52.404;16.942;2023-05-07T02:18:24;15.10;;;6.00;;
55815;SDS011;41744;52.404;16.942;2023-05-07T02:20:50;13.77;;;5.43;;
55815;SDS011;41744;52.404;16.942;2023-05-07T02:23:16;11.37;;;5.53;;
55815;SDS011;41744;52.404;16.942;2023-05-07T02:25:42;14.93;;;6.03;;
55815;SDS011;41744;52.404;16.942;2023-05-07T02:28:08;13.57;;;5.67;;
55815;SDS011;41744;52.404;16.942;2023-05-07T02:30:35;11.80;;;6.07;;
55815;SDS011;41744;52.404;16.942;2023-05-07T02:33:02;9.47;;;5.23;;
55815;SDS011;41744;52.404;16.942;2023-05-07T02:35:28;13.03;;;6.30;;
55815;SDS011;41744;52.404;16.942;2023-05-07T02:37:54;11.27;;;6.00;;
55815;SDS011;41744;52.404;16.942;2023-05-07T02:40:20;11.70;;;5.87;;
55815;SDS011;41744;52.404;16.942;2023-05-07T02:42:46;12.60;;;5.50;;
55815;SDS011;41744;52.404;16.942;2023-05-07T02:45:12;17.47;;;7.03;;
55815;SDS011;41744;52.404;16.942;2023-05-07T02:47:39;11.27;;;5.60;;
55815;SDS011;41744;52.404;16.942;2023-05-07T02:50:05;13.60;;;6.13;;
55815;SDS011;41744;52.404;16.942;2023-05-07T02:52:31;12.30;;;5.90;;
55815;SDS011;41744;52.404;16.942;2023-05-07T02:54:57;10.77;;;6.20;;
55815;SDS011;41744;52.404;16.942;2023-05-07T02:57:24;11.67;;;6.03;;
55815;SDS011;41744;52.404;16.942;2023-05-07T02:59:50;11.63;;;5.27;;
55815;SDS011;41744;52.404;16.942;2023-05-07T03:02:16;17.40;;;6.37;;
55815;SDS011;41744;52.404;16.942;2023-05-07T03:04:42;13.23;;;5.93;;
55815;SDS011;41744;52.404;16.942;2023-05-07T03:07:08;12.03;;;5.37;;
55815;SDS011;41744;52.404;16.942;2023-05-07T03:09:34;11.60;;;6.13;;
55815;SDS011;41744;52.404;16.942;2023-05-07T03:12:00;14.90;;;6.40;;
55815;SDS011;41744;52.404;16.942;2023-05-07T03:14:26;13.63;;;5.40;;
55815;SDS011;41744;52.404;16.942;2023-05-07T03:16:55;10.07;;;5.57;;
55815;SDS011;41744;52.404;16.942;2023-05-07T03:19:21;9.53;;;5.53;;
55815;SDS011;41744;52.404;16.942;2023-05-07T03:21:47;10.73;;;5.33;;
55815;SDS011;41744;52.404;16.942;2023-05-07T03:24:13;10.90;;;5.43;;
55815;SDS011;41744;52.404;16.942;2023-05-07T03:26:39;10.90;;;5.40;;
55815;SDS011;41744;52.404;16.942;2023-05-07T03:29:06;17.10;;;5.77;;
55815;SDS011;41744;52.404;16.942;2023-05-07T03:31:32;10.00;;;5.70;;
55815;SDS011;41744;52.404;16.942;2023-05-07T03:33:58;9.87;;;5.07;;
55815;SDS011;41744;52.404;16.942;2023-05-07T03:36:24;10.70;;;5.10;;
55815;SDS011;41744;52.404;16.942;2023-05-07T03:38:52;7.90;;;4.90;;
55815;SDS011;41744;52.404;16.942;2023-05-07T03:41:18;12.73;;;5.67;;
55815;SDS011;41744;52.404;16.942;2023-05-07T03:43:45;11.27;;;5.53;;
55815;SDS011;41744;52.404;16.942;2023-05-07T03:46:11;11.60;;;5.10;;
55815;SDS011;41744;52.404;16.942;2023-05-07T03:48:37;10.50;;;5.40;;
55815;SDS011;41744;52.404;16.942;2023-05-07T03:51:03;11.80;;;5.93;;
55815;SDS011;41744;52.404;16.942;2023-05-07T03:53:29;14.07;;;5.70;;
55815;SDS011;41744;52.404;16.942;2023-05-07T03:55:55;8.63;;;5.07;;
55815;SDS011;41744;52.404;16.942;2023-05-07T03:58:21;12.10;;;5.67;;
55815;SDS011;41744;52.404;16.942;2023-05-07T04:00:47;9.83;;;4.63;;
55815;SDS011;41744;52.404;16.942;2023-05-07T04:03:13;10.67;;;5.00;;
55815;SDS011;41744;52.404;16.942;2023-05-07T04:05:40;12.13;;;5.50;;
55815;SDS011;41744;52.404;16.942;2023-05-07T04:08:06;11.67;;;5.17;;
55815;SDS011;41744;52.404;16.942;2023-05-07T04:10:32;8.97;;;5.10;;
55815;SDS011;41744;52.404;16.942;2023-05-07T04:12:58;13.10;;;5.43;;
55815;SDS011;41744;52.404;16.942;2023-05-07T04:15:24;10.23;;;4.93;;
55815;SDS011;41744;52.404;16.942;2023-05-07T04:17:50;10.43;;;5.07;;
55815;SDS011;41744;52.404;16.942;2023-05-07T04:20:17;12.00;;;5.07;;
55815;SDS011;41744;52.404;16.942;2023-05-07T04:22:43;11.87;;;5.00;;
55815;SDS011;41744;52.404;16.942;2023-05-07T04:25:09;7.20;;;4.40;;
55815;SDS011;41744;52.404;16.942;2023-05-07T04:27:35;9.15;;;4.55;;
55815;SDS011;41744;52.404;16.942;2023-05-07T04:30:02;12.15;;;5.20;;
55815;SDS011;41744;52.404;16.942;2023-05-07T04:32:29;9.93;;;4.97;;
55815;SDS011;41744;52.404;16.942;2023-05-07T04:34:56;9.38;;;4.95;;
55815;SDS011;41744;52.404;16.942;2023-05-07T04:37:22;12.70;;;5.18;;
55815;SDS011;41744;52.404;16.942;2023-05-07T04:39:48;11.57;;;4.75;;
55815;SDS011;41744;52.404;16.942;2023-05-07T04:42:15;11.07;;;5.27;;
55815;SDS011;41744;52.404;16.942;2023-05-07T04:44:41;12.80;;;5.33;;
55815;SDS011;41744;52.404;16.942;2023-05-07T04:47:07;12.70;;;5.70;;
55815;SDS011;41744;52.404;16.942;2023-05-07T04:49:33;11.07;;;5.53;;
55815;SDS011;41744;52.404;16.942;2023-05-07T04:51:59;10.90;;;5.83;;
55815;SDS011;41744;52.404;16.942;2023-05-07T04:54:26;11.40;;;5.43;;
55815;SDS011;41744;52.404;16.942;2023-05-07T04:56:52;12.87;;;5.57;;
55815;SDS011;41744;52.404;16.942;2023-05-07T04:59:18;10.80;;;4.90;;
55815;SDS011;41744;52.404;16.942;2023-05-07T05:01:44;14.05;;;5.15;;
55815;SDS011;41744;52.404;16.942;2023-05-07T05:04:10;10.90;;;4.78;;
55815;SDS011;41744;52.404;16.942;2023-05-07T05:06:36;8.38;;;4.30;;
55815;SDS011;41744;52.404;16.942;2023-05-07T05:09:02;9.63;;;4.35;;
55815;SDS011;41744;52.404;16.942;2023-05-07T05:11:32;8.02;;;4.13;;
55815;SDS011;41744;52.404;16.942;2023-05-07T05:13:59;11.32;;;4.10;;
55815;SDS011;41744;52.404;16.942;2023-05-07T05:16:28;7.90;;;3.90;;
55815;SDS011;41744;52.404;16.942;2023-05-07T05:18:54;7.03;;;3.78;;
55815;SDS011;41744;52.404;16.942;2023-05-07T05:21:22;6.97;;;3.83;;
55815;SDS011;41744;52.404;16.942;2023-05-07T05:23:49;7.50;;;3.83;;
55815;SDS011;41744;52.404;16.942;2023-05-07T05:26:15;7.32;;;3.78;;
55815;SDS011;41744;52.404;16.942;2023-05-07T05:28:41;6.45;;;3.55;;
55815;SDS011;41744;52.404;16.942;2023-05-07T05:31:07;8.43;;;3.80;;
55815;SDS011;41744;52.404;16.942;2023-05-07T05:33:33;6.30;;;3.13;;
55815;SDS011;41744;52.404;16.942;2023-05-07T05:36:00;8.35;;;3.50;;
55815;SDS011;41744;52.404;16.942;2023-05-07T05:38:26;5.72;;;3.40;;
55815;SDS011;41744;52.404;16.942;2023-05-07T05:40:52;5.68;;;3.58;;
55815;SDS011;41744;52.404;16.942;2023-05-07T05:43:18;7.40;;;3.78;;
55815;SDS011;41744;52.404;16.942;2023-05-07T05:45:47;7.55;;;3.15;;
55815;SDS011;41744;52.404;16.942;2023-05-07T05:48:13;4.95;;;3.30;;
55815;SDS011;41744;52.404;16.942;2023-05-07T05:50:39;5.97;;;2.65;;
55815;SDS011;41744;52.404;16.942;2023-05-07T05:53:05;5.47;;;2.50;;
55815;SDS011;41744;52.404;16.942;2023-05-07T05:55:31;5.93;;;2.92;;
55815;SDS011;41744;52.404;16.942;2023-05-07T05:57:58;3.70;;;2.58;;
55815;SDS011;41744;52.404;16.942;2023-05-07T06:00:24;9.25;;;3.00;;
55815;SDS011;41744;52.404;16.942;2023-05-07T06:02:50;5.85;;;2.53;;
55815;SDS011;41744;52.404;16.942;2023-05-07T06:05:16;8.98;;;2.70;;
55815;SDS011;41744;52.404;16.942;2023-05-07T06:07:42;5.47;;;2.47;;
55815;SDS011;41744;52.404;16.942;2023-05-07T06:10:08;4.43;;;2.83;;
55815;SDS011;41744;52.404;16.942;2023-05-07T06:12:34;4.38;;;2.30;;
55815;SDS011;41744;52.404;16.942;2023-05-07T06:15:01;5.88;;;2.63;;
55815;SDS011;41744;52.404;16.942;2023-05-07T06:17:27;6.28;;;2.42;;
55815;SDS011;41744;52.404;16.942;2023-05-07T06:19:53;4.95;;;2.60;;
55815;SDS011;41744;52.404;16.942;2023-05-07T06:22:19;5.03;;;2.58;;
55815;SDS011;41744;52.404;16.942;2023-05-07T06:24:45;4.07;;;2.40;;
55815;SDS011;41744;52.404;16.942;2023-05-07T06:27:11;4.50;;;2.30;;
55815;SDS011;41744;52.404;16.942;2023-05-07T06:29:37;3.47;;;2.17;;
55815;SDS011;41744;52.404;16.942;2023-05-07T06:32:10;3.28;;;2.10;;
55815;SDS011;41744;52.404;16.942;2023-05-07T06:34:36;5.43;;;2.22;;
55815;SDS011;41744;52.404;16.942;2023-05-07T06:37:03;3.80;;;2.38;;
55815;SDS011;41744;52.404;16.942;2023-05-07T06:39:29;4.28;;;2.28;;
55815;SDS011;41744;52.404;16.942;2023-05-07T06:41:55;4.43;;;2.33;;
55815;SDS011;41744;52.404;16.942;2023-05-07T06:44:21;5.47;;;2.20;;
55815;SDS011;41744;52.404;16.942;2023-05-07T06:46:47;3.70;;;2.10;;
55815;SDS011;41744;52.404;16.942;2023-05-07T06:49:13;5.68;;;1.92;;
55815;SDS011;41744;52.404;16.942;2023-05-07T06:51:39;3.35;;;2.00;;
55815;SDS011;41744;52.404;16.942;2023-05-07T06:54:05;6.07;;;1.85;;
55815;SDS011;41744;52.404;16.942;2023-05-07T06:56:32;5.50;;;1.80;;
55815;SDS011;41744;52.404;16.942;2023-05-07T06:58:59;1.73;;;1.30;;
55815;SDS011;41744;52.404;16.942;2023-05-07T07:01:25;3.78;;;1.80;;
55815;SDS011;41744;52.404;16.942;2023-05-07T07:03:51;4.28;;;1.77;;
55815;SDS011;41744;52.404;16.942;2023-05-07T07:06:17;5.72;;;1.45;;
55815;SDS011;41744;52.404;16.942;2023-05-07T07:08:43;3.00;;;1.13;;
55815;SDS011;41744;52.404;16.942;2023-05-07T07:11:09;3.90;;;1.48;;
55815;SDS011;41744;52.404;16.942;2023-05-07T07:13:36;2.35;;;1.20;;
55815;SDS011;41744;52.404;16.942;2023-05-07T07:16:02;2.72;;;1.27;;
55815;SDS011;41744;52.404;16.942;2023-05-07T07:18:28;1.77;;;1.13;;
55815;SDS011;41744;52.404;16.942;2023-05-07T07:20:54;2.58;;;1.38;;
55815;SDS011;41744;52.404;16.942;2023-05-07T07:23:20;4.18;;;1.40;;
55815;SDS011;41744;52.404;16.942;2023-05-07T07:25:46;3.03;;;1.15;;
55815;SDS011;41744;52.404;16.942;2023-05-07T07:28:13;1.92;;;1.30;;
55815;SDS011;41744;52.404;16.942;2023-05-07T07:30:39;3.00;;;1.25;;
55815;SDS011;41744;52.404;16.942;2023-05-07T07:33:05;1.15;;;0.90;;
55815;SDS011;41744;52.404;16.942;2023-05-07T07:35:31;1.75;;;1.20;;
55815;SDS011;41744;52.404;16.942;2023-05-07T07:37:58;3.97;;;1.10;;
55815;SDS011;41744;52.404;16.942;2023-05-07T07:40:24;1.90;;;1.17;;
55815;SDS011;41744;52.404;16.942;2023-05-07T07:42:50;2.20;;;1.15;;
55815;SDS011;41744;52.404;16.942;2023-05-07T07:45:16;2.63;;;1.10;;
55815;SDS011;41744;52.404;16.942;2023-05-07T07:47:42;2.50;;;1.40;;
55815;SDS011;41744;52.404;16.942;2023-05-07T07:50:08;1.70;;;1.10;;
55815;SDS011;41744;52.404;16.942;2023-05-07T07:52:35;2.63;;;1.27;;
55815;SDS011;41744;52.404;16.942;2023-05-07T07:55:01;3.75;;;1.15;;
55815;SDS011;41744;52.404;16.942;2023-05-07T07:57:27;2.10;;;1.08;;
55815;SDS011;41744;52.404;16.942;2023-05-07T07:59:53;2.47;;;1.23;;
55815;SDS011;41744;52.404;16.942;2023-05-07T08:02:19;2.83;;;1.13;;
55815;SDS011;41744;52.404;16.942;2023-05-07T08:04:45;2.38;;;1.15;;
55815;SDS011;41744;52.404;16.942;2023-05-07T08:07:11;2.85;;;1.00;;
55815;SDS011;41744;52.404;16.942;2023-05-07T08:09:38;2.38;;;1.35;;
55815;SDS011;41744;52.404;16.942;2023-05-07T08:12:04;5.60;;;1.60;;
55815;SDS011;41744;52.404;16.942;2023-05-07T08:14:31;2.97;;;1.45;;
55815;SDS011;41744;52.404;16.942;2023-05-07T08:16:57;3.37;;;1.30;;
55815;SDS011;41744;52.404;16.942;2023-05-07T08:19:23;2.25;;;1.67;;
55815;SDS011;41744;52.404;16.942;2023-05-07T08:21:49;9.20;;;1.57;;
55815;SDS011;41744;52.404;16.942;2023-05-07T08:24:15;2.13;;;1.33;;
55815;SDS011;41744;52.404;16.942;2023-05-07T08:26:42;2.03;;;1.40;;
55815;SDS011;41744;52.404;16.942;2023-05-07T08:29:08;3.00;;;1.47;;
55815;SDS011;41744;52.404;16.942;2023-05-07T08:31:35;4.73;;;1.57;;
55815;SDS011;41744;52.404;16.942;2023-05-07T08:34:03;2.70;;;1.40;;
55815;SDS011;41744;52.404;16.942;2023-05-07T08:36:30;1.97;;;1.13;;
55815;SDS011;41744;52.404;16.942;2023-05-07T08:38:56;2.23;;;1.50;;
55815;SDS011;41744;52.404;16.942;2023-05-07T08:41:22;3.13;;;1.43;;
55815;SDS011;41744;52.404;16.942;2023-05-07T08:43:48;7.13;;;1.50;;
55815;SDS011;41744;52.404;16.942;2023-05-07T08:46:19;4.13;;;1.70;;
55815;SDS011;41744;52.404;16.942;2023-05-07T08:48:47;3.95;;;2.03;;
55815;SDS011;41744;52.404;16.942;2023-05-07T08:51:16;2.37;;;1.60;;
55815;SDS011;41744;52.404;16.942;2023-05-07T08:53:42;3.73;;;1.57;;
55815;SDS011;41744;52.404;16.942;2023-05-07T08:56:09;2.70;;;1.30;;
55815;SDS011;41744;52.404;16.942;2023-05-07T08:58:35;3.43;;;1.33;;
55815;SDS011;41744;52.404;16.942;2023-05-07T09:01:02;1.95;;;1.40;;
55815;SDS011;41744;52.404;16.942;2023-05-07T09:03:30;3.25;;;1.83;;
55815;SDS011;41744;52.404;16.942;2023-05-07T09:05:56;2.45;;;1.60;;
55815;SDS011;41744;52.404;16.942;2023-05-07T09:08:24;4.67;;;1.57;;
55815;SDS011;41744;52.404;16.942;2023-05-07T09:10:51;2.43;;;1.53;;
55815;SDS011;41744;52.404;16.942;2023-05-07T09:13:17;2.70;;;1.87;;
55815;SDS011;41744;52.404;16.942;2023-05-07T09:15:44;2.22;;;1.73;;
55815;SDS011;41744;52.404;16.942;2023-05-07T09:18:10;5.55;;;2.00;;
55815;SDS011;41744;52.404;16.942;2023-05-07T09:20:36;5.90;;;1.50;;
55815;SDS011;41744;52.404;16.942;2023-05-07T09:23:03;2.10;;;1.60;;
55815;SDS011;41744;52.404;16.942;2023-05-07T09:25:32;3.73;;;1.60;;
55815;SDS011;41744;52.404;16.942;2023-05-07T09:27:59;2.20;;;1.80;;
55815;SDS011;41744;52.404;16.942;2023-05-07T09:30:28;2.60;;;1.80;;
55815;SDS011;41744;52.404;16.942;2023-05-07T09:32:55;3.13;;;1.93;;
55815;SDS011;41744;52.404;16.942;2023-05-07T09:35:22;2.87;;;1.80;;
55815;SDS011;41744;52.404;16.942;2023-05-07T09:37:52;5.67;;;1.80;;
55815;SDS011;41744;52.404;16.942;2023-05-07T09:40:22;3.70;;;1.80;;
55815;SDS011;41744;52.404;16.942;2023-05-07T09:42:49;3.90;;;1.53;;
55815;SDS011;41744;52.404;16.942;2023-05-07T09:45:25;3.47;;;1.90;;
55815;SDS011;41744;52.404;16.942;2023-05-07T09:47:53;4.90;;;1.50;;
55815;SDS011;41744;52.404;16.942;2023-05-07T09:50:26;2.30;;;1.70;;
55815;SDS011;41744;52.404;16.942;2023-05-07T09:52:56;3.73;;;1.60;;
55815;SDS011;41744;52.404;16.942;2023-05-07T09:55:23;2.97;;;1.80;;
55815;SDS011;41744;52.404;16.942;2023-05-07T09:57:53;2.30;;;1.53;;
55815;SDS011;41744;52.404;16.942;2023-05-07T10:00:20;3.67;;;1.60;;
55815;SDS011;41744;52.404;16.942;2023-05-07T10:02:48;3.00;;;1.93;;
55815;SDS011;41744;52.404;16.942;2023-05-07T10:05:16;2.80;;;1.73;;
55815;SDS011;41744;52.404;16.942;2023-05-07T10:07:42;2.43;;;1.50;;
55815;SDS011;41744;52.404;16.942;2023-05-07T10:10:09;4.13;;;1.73;;
55815;SDS011;41744;52.404;16.942;2023-05-07T10:12:35;2.40;;;1.53;;
55815;SDS011;41744;52.404;16.942;2023-05-07T10:15:09;3.63;;;1.60;;
55815;SDS011;41744;52.404;16.942;2023-05-07T10:17:38;2.50;;;1.63;;
55815;SDS011;41744;52.404;16.942;2023-05-07T10:20:05;6.13;;;1.90;;
55815;SDS011;41744;52.404;16.942;2023-05-07T10:22:32;4.87;;;1.67;;
55815;SDS011;41744;52.404;16.942;2023-05-07T10:25:03;3.97;;;1.37;;
55815;SDS011;41744;52.404;16.942;2023-05-07T10:27:31;5.67;;;1.80;;
55815;SDS011;41744;52.404;16.942;2023-05-07T10:34:56;1.83;;;1.23;;
55815;SDS011;41744;52.404;16.942;2023-05-07T10:37:24;2.17;;;1.30;;
55815;SDS011;41744;52.404;16.942;2023-05-07T10:39:51;4.37;;;1.20;;
55815;SDS011;41744;52.404;16.942;2023-05-07T10:42:17;3.73;;;1.80;;
55815;SDS011;41744;52.404;16.942;2023-05-07T10:44:43;3.30;;;1.60;;
55815;SDS011;41744;52.404;16.942;2023-05-07T10:47:10;2.17;;;1.10;;
55815;SDS011;41744;52.404;16.942;2023-05-07T10:49:46;3.07;;;1.33;;
55815;SDS011;41744;52.404;16.942;2023-05-07T10:52:23;3.67;;;1.77;;
55815;SDS011;41744;52.404;16.942;2023-05-07T10:57:36;3.03;;;1.57;;
55815;SDS011;41744;52.404;16.942;2023-05-07T11:05:25;1.80;;;1.17;;
55815;SDS011;41744;52.404;16.942;2023-05-07T11:07:59;2.50;;;1.40;;
55815;SDS011;41744;52.404;16.942;2023-05-07T11:13:10;1.80;;;1.00;;
55815;SDS011;41744;52.404;16.942;2023-05-07T11:15:37;1.67;;;1.20;;
55815;SDS011;41744;52.404;16.942;2023-05-07T11:18:04;3.50;;;1.50;;
55815;SDS011;41744;52.404;16.942;2023-05-07T11:26:04;3.70;;;1.52;;
55815;SDS011;41744;52.404;16.942;2023-05-07T11:28:30;1.20;;;1.00;;
55815;SDS011;41744;52.404;16.942;2023-05-07T11:30:57;3.13;;;1.10;;
55815;SDS011;41744;52.404;16.942;2023-05-07T11:33:23;2.00;;;1.20;;
55815;SDS011;41744;52.404;16.942;2023-05-07T11:35:50;2.53;;;1.13;;
55815;SDS011;41744;52.404;16.942;2023-05-07T11:38:18;3.75;;;1.20;;
55815;SDS011;41744;52.404;16.942;2023-05-07T11:40:48;1.70;;;1.20;;
55815;SDS011;41744;52.404;16.942;2023-05-07T11:43:15;3.60;;;1.10;;
55815;SDS011;41744;52.404;16.942;2023-05-07T11:45:41;3.00;;;1.30;;
55815;SDS011;41744;52.404;16.942;2023-05-07T11:48:07;6.87;;;1.20;;
55815;SDS011;41744;52.404;16.942;2023-05-07T11:50:33;2.15;;;1.33;;
55815;SDS011;41744;52.404;16.942;2023-05-07T11:52:59;2.00;;;1.00;;
55815;SDS011;41744;52.404;16.942;2023-05-07T11:55:25;2.20;;;1.10;;
55815;SDS011;41744;52.404;16.942;2023-05-07T11:57:51;2.47;;;1.10;;
55815;SDS011;41744;52.404;16.942;2023-05-07T12:00:17;1.13;;;1.00;;
55815;SDS011;41744;52.404;16.942;2023-05-07T12:02:45;3.50;;;1.40;;
55815;SDS011;41744;52.404;16.942;2023-05-07T12:05:11;2.13;;;1.35;;
55815;SDS011;41744;52.404;16.942;2023-05-07T12:07:37;2.13;;;1.30;;
55815;SDS011;41744;52.404;16.942;2023-05-07T12:10:04;2.00;;;1.10;;
55815;SDS011;41744;52.404;16.942;2023-05-07T12:12:31;2.47;;;1.33;;
55815;SDS011;41744;52.404;16.942;2023-05-07T12:14:57;4.65;;;1.50;;
55815;SDS011;41744;52.404;16.942;2023-05-07T12:17:23;3.93;;;1.47;;
55815;SDS011;41744;52.404;16.942;2023-05-07T12:19:49;2.60;;;1.55;;
55815;SDS011;41744;52.404;16.942;2023-05-07T12:22:15;2.72;;;1.40;;
55815;SDS011;41744;52.404;16.942;2023-05-07T12:24:48;2.67;;;1.77;;
55815;SDS011;41744;52.404;16.942;2023-05-07T12:27:15;3.20;;;2.03;;
55815;SDS011;41744;52.404;16.942;2023-05-07T12:29:47;2.73;;;1.20;;
55815;SDS011;41744;52.404;16.942;2023-05-07T12:32:16;2.43;;;1.40;;
55815;SDS011;41744;52.404;16.942;2023-05-07T12:34:46;1.53;;;1.20;;
55815;SDS011;41744;52.404;16.942;2023-05-07T12:37:15;3.83;;;1.60;;
55815;SDS011;41744;52.404;16.942;2023-05-07T12:39:47;2.70;;;1.60;;
55815;SDS011;41744;52.404;16.942;2023-05-07T12:42:19;2.53;;;1.57;;
55815;SDS011;41744;52.404;16.942;2023-05-07T12:44:51;4.53;;;1.70;;
55815;SDS011;41744;52.404;16.942;2023-05-07T12:47:17;6.70;;;1.80;;
55815;SDS011;41744;52.404;16.942;2023-05-07T12:49:43;2.45;;;1.35;;
55815;SDS011;41744;52.404;16.942;2023-05-07T12:52:11;4.57;;;1.47;;
55815;SDS011;41744;52.404;16.942;2023-05-07T12:54:37;2.22;;;1.60;;
55815;SDS011;41744;52.404;16.942;2023-05-07T12:57:07;3.03;;;1.75;;
55815;SDS011;41744;52.404;16.942;2023-05-07T12:59:34;4.10;;;1.95;;
55815;SDS011;41744;52.404;16.942;2023-05-07T13:02:00;3.03;;;1.20;;
55815;SDS011;41744;52.404;16.942;2023-05-07T13:04:26;4.18;;;1.40;;
55815;SDS011;41744;52.404;16.942;2023-05-07T13:06:52;2.20;;;1.60;;
55815;SDS011;41744;52.404;16.942;2023-05-07T13:09:18;5.75;;;1.30;;
55815;SDS011;41744;52.404;16.942;2023-05-07T13:11:45;2.70;;;1.50;;
55815;SDS011;41744;52.404;16.942;2023-05-07T13:14:11;2.37;;;1.37;;
55815;SDS011;41744;52.404;16.942;2023-05-07T13:16:37;4.40;;;2.30;;
55815;SDS011;41744;52.404;16.942;2023-05-07T13:19:03;4.47;;;2.00;;
55815;SDS011;41744;52.404;16.942;2023-05-07T13:21:29;1.70;;;1.27;;
55815;SDS011;41744;52.404;16.942;2023-05-07T13:23:59;2.80;;;1.67;;
55815;SDS011;41744;52.404;16.942;2023-05-07T13:26:25;2.10;;;1.50;;
55815;SDS011;41744;52.404;16.942;2023-05-07T13:28:52;2.85;;;1.80;;
55815;SDS011;41744;52.404;16.942;2023-05-07T13:31:18;3.05;;;1.77;;
55815;SDS011;41744;52.404;16.942;2023-05-07T13:33:45;3.72;;;1.85;;
55815;SDS011;41744;52.404;16.942;2023-05-07T13:36:11;4.00;;;1.40;;
55815;SDS011;41744;52.404;16.942;2023-05-07T13:38:38;3.25;;;1.40;;
55815;SDS011;41744;52.404;16.942;2023-05-07T13:41:04;2.83;;;1.63;;
55815;SDS011;41744;52.404;16.942;2023-05-07T13:43:31;4.85;;;1.80;;
55815;SDS011;41744;52.404;16.942;2023-05-07T13:45:58;4.07;;;1.43;;
55815;SDS011;41744;52.404;16.942;2023-05-07T13:48:24;7.18;;;1.58;;
55815;SDS011;41744;52.404;16.942;2023-05-07T13:50:50;4.30;;;1.60;;
55815;SDS011;41744;52.404;16.942;2023-05-07T13:53:17;3.63;;;1.83;;
55815;SDS011;41744;52.404;16.942;2023-05-07T13:55:43;5.20;;;2.10;;
55815;SDS011;41744;52.404;16.942;2023-05-07T14:01:01;3.53;;;1.87;;
55815;SDS011;41744;52.404;16.942;2023-05-07T14:03:27;2.73;;;1.57;;
55815;SDS011;41744;52.404;16.942;2023-05-07T14:05:54;4.27;;;1.73;;
55815;SDS011;41744;52.404;16.942;2023-05-07T14:08:22;4.25;;;2.00;;
55815;SDS011;41744;52.404;16.942;2023-05-07T14:10:48;4.25;;;1.70;;
55815;SDS011;41744;52.404;16.942;2023-05-07T14:13:15;2.63;;;1.80;;
55815;SDS011;41744;52.404;16.942;2023-05-07T14:15:41;3.30;;;1.73;;
55815;SDS011;41744;52.404;16.942;2023-05-07T14:18:11;3.83;;;1.80;;
55815;SDS011;41744;52.404;16.942;2023-05-07T14:20:40;3.45;;;1.65;;
55815;SDS011;41744;52.404;16.942;2023-05-07T14:23:06;3.83;;;1.60;;
55815;SDS011;41744;52.404;16.942;2023-05-07T14:25:32;3.30;;;1.85;;
55815;SDS011;41744;52.404;16.942;2023-05-07T14:27:58;2.72;;;1.70;;
55815;SDS011;41744;52.404;16.942;2023-05-07T14:30:24;2.65;;;1.70;;
55815;SDS011;41744;52.404;16.942;2023-05-07T14:32:50;3.05;;;1.58;;
55815;SDS011;41744;52.404;16.942;2023-05-07T14:35:16;4.68;;;1.67;;
55815;SDS011;41744;52.404;16.942;2023-05-07T14:37:43;6.05;;;1.80;;
55815;SDS011;41744;52.404;16.942;2023-05-07T14:40:09;2.83;;;1.53;;
55815;SDS011;41744;52.404;16.942;2023-05-07T14:42:35;2.63;;;1.73;;
55815;SDS011;41744;52.404;16.942;2023-05-07T14:45:01;4.10;;;1.50;;
55815;SDS011;41744;52.404;16.942;2023-05-07T14:47:27;2.65;;;1.80;;
55815;SDS011;41744;52.404;16.942;2023-05-07T14:49:54;3.33;;;1.83;;
55815;SDS011;41744;52.404;16.942;2023-05-07T14:52:20;3.30;;;2.03;;